createdAt,value
2023-04-05T00:01:07.632Z,5.96
2023-04-05T00:03:37.177Z,5.92
2023-04-05T00:06:05.862Z,5.90
2023-04-05T00:08:33.696Z,5.86
2023-04-05T00:11:01.958Z,5.82
2023-04-05T00:13:30.387Z,5.80
2023-04-05T00:16:01.300Z,5.77
2023-04-05T00:18:34.416Z,5.74
2023-04-05T00:21:03.688Z,5.48
2023-04-05T00:23:37.510Z,5.64
2023-04-05T00:26:05.507Z,5.67
2023-04-05T00:28:33.291Z,5.66
2023-04-05T00:31:01.896Z,5.64
2023-04-05T00:33:29.800Z,5.63
2023-04-05T00:35:57.894Z,5.61
2023-04-05T00:38:27.094Z,5.62
2023-04-05T00:40:54.984Z,5.59
2023-04-05T00:43:22.995Z,5.58
2023-04-05T00:45:51.018Z,5.57
2023-04-05T00:48:18.908Z,5.55
2023-04-05T00:50:49.983Z,5.55
2023-04-05T00:53:20.659Z,5.55
2023-04-05T00:55:50.808Z,5.53
2023-04-05T00:58:21.671Z,5.50
2023-04-05T01:01:01.491Z,5.51
2023-04-05T01:03:34.562Z,5.49
2023-04-05T01:06:11.300Z,5.48
2023-04-05T01:08:47.014Z,5.48
2023-04-05T01:11:18.785Z,5.45
2023-04-05T01:13:47.846Z,5.44
2023-04-05T01:16:16.078Z,5.43
2023-04-05T01:18:47.217Z,5.42
2023-04-05T01:21:49.536Z,5.39
2023-04-05T01:24:30.614Z,5.39
2023-04-05T01:27:05.726Z,5.40
2023-04-05T01:29:51.402Z,5.39
2023-04-05T01:32:40.772Z,5.36
2023-04-05T01:35:16.641Z,5.34
2023-04-05T01:37:49.777Z,5.32
2023-04-05T01:40:17.933Z,5.32
2023-04-05T01:42:47.106Z,5.33
2023-04-05T01:45:16.330Z,5.32
2023-04-05T01:47:44.116Z,5.30
2023-04-05T01:50:12.201Z,5.30
2023-04-05T01:52:40.044Z,5.30
2023-04-05T01:55:08.521Z,5.31
2023-04-05T01:57:37.720Z,5.29
2023-04-05T02:00:06.581Z,5.30
2023-04-05T02:02:42.158Z,5.30
2023-04-05T02:05:10.687Z,5.28
2023-04-05T02:07:38.558Z,5.28
2023-04-05T02:10:07.413Z,5.26
2023-04-05T02:12:35.269Z,5.24
2023-04-05T02:15:04.052Z,5.23
2023-04-05T02:17:34.182Z,5.22
2023-04-05T02:20:05.369Z,5.21
2023-04-05T02:22:34.028Z,5.20
2023-04-05T02:25:03.479Z,5.20
2023-04-05T02:27:31.400Z,5.18
2023-04-05T02:29:59.177Z,5.18
2023-04-05T02:32:27.042Z,5.16
2023-04-05T02:34:55.214Z,5.15
2023-04-05T02:37:27.303Z,5.15
2023-04-05T02:39:55.263Z,5.13
2023-04-05T02:42:23.213Z,5.11
2023-04-05T02:44:52.368Z,5.12
2023-04-05T02:47:22.299Z,5.08
2023-04-05T02:49:59.403Z,5.08
2023-04-05T02:52:34.267Z,5.04
2023-04-05T02:55:02.193Z,5.04
2023-04-05T02:57:32.356Z,5.02
2023-04-05T03:00:23.495Z,5.00
2023-04-05T03:02:53.068Z,4.98
2023-04-05T03:05:22.606Z,4.97
2023-04-05T03:07:54.819Z,4.94
2023-04-05T03:10:29.262Z,4.92
2023-04-05T03:13:04.030Z,4.91
2023-04-05T03:15:33.346Z,4.91
2023-04-05T03:18:06.532Z,4.88
2023-04-05T03:20:40.099Z,4.87
2023-04-05T03:23:12.278Z,4.85
2023-04-05T03:25:41.627Z,4.83
2023-04-05T03:28:10.476Z,4.80
2023-04-05T03:30:42.434Z,4.77
2023-04-05T03:33:18.281Z,4.76
2023-04-05T03:35:49.578Z,4.75
2023-04-05T03:38:19.549Z,4.75
2023-04-05T03:41:06.824Z,4.69
2023-04-05T03:43:36.096Z,4.69
2023-04-05T03:46:03.900Z,4.67
2023-04-05T03:48:32.463Z,4.64
2023-04-05T03:51:00.388Z,4.63
2023-04-05T03:53:29.637Z,4.62
2023-04-05T03:55:58.401Z,4.58
2023-04-05T03:58:41.680Z,4.52
2023-04-05T04:01:10.757Z,4.52
2023-04-05T04:03:39.383Z,4.52
2023-04-05T04:06:08.431Z,4.50
2023-04-05T04:08:37.761Z,4.47
2023-04-05T04:11:06.489Z,4.44
2023-04-05T04:13:40.255Z,4.42
2023-04-05T04:16:19.788Z,4.39
2023-04-05T04:18:56.461Z,4.37
2023-04-05T04:21:52.022Z,4.34
2023-04-05T04:24:40.771Z,4.31
2023-04-05T04:27:29.712Z,4.29
2023-04-05T04:30:16.989Z,4.27
2023-04-05T04:33:09.085Z,4.25
2023-04-05T04:35:39.312Z,4.21
2023-04-05T04:38:34.909Z,4.18
2023-04-05T04:41:22.865Z,4.17
2023-04-05T04:44:14.622Z,4.14
2023-04-05T04:47:02.397Z,4.09
2023-04-05T04:49:47.405Z,4.10
2023-04-05T04:52:15.369Z,4.08
2023-04-05T04:54:43.416Z,4.06
2023-04-05T04:57:12.701Z,4.05
2023-04-05T04:59:40.461Z,4.02
2023-04-05T05:02:11.079Z,4.00
2023-04-05T05:04:41.646Z,3.97
2023-04-05T05:07:10.849Z,3.98
2023-04-05T05:09:38.712Z,3.97
2023-04-05T05:12:07.114Z,3.95
2023-04-05T05:14:36.691Z,3.93
2023-04-05T05:17:06.436Z,3.91
2023-04-05T05:19:34.338Z,3.92
2023-04-05T05:22:02.117Z,3.89
2023-04-05T05:24:29.982Z,3.90
2023-04-05T05:26:57.990Z,3.89
2023-04-05T05:29:25.743Z,3.86
2023-04-05T05:31:55.115Z,3.88
2023-04-05T05:34:23.160Z,3.87
2023-04-05T05:36:55.584Z,3.87
2023-04-05T05:39:24.353Z,3.87
2023-04-05T05:41:52.224Z,3.88
2023-04-05T05:44:20.156Z,3.89
2023-04-05T05:46:48.149Z,3.89
2023-04-05T05:49:18.019Z,3.93
2023-04-05T05:51:46.426Z,3.93
2023-04-05T05:54:14.409Z,3.95
2023-04-05T05:56:42.258Z,3.98
2023-04-05T05:59:10.606Z,4.00
2023-04-05T06:01:42.447Z,4.04
2023-04-05T06:04:10.697Z,4.08
2023-04-05T06:06:40.478Z,4.12
2023-04-05T06:09:08.393Z,4.15
2023-04-05T06:11:38.996Z,4.21
2023-04-05T06:14:11.691Z,4.27
2023-04-05T06:16:39.644Z,4.34
2023-04-05T06:19:07.584Z,4.43
2023-04-05T06:21:35.469Z,4.53
2023-04-05T06:24:05.256Z,4.66
2023-04-05T06:26:33.107Z,4.78
2023-04-05T06:29:00.952Z,4.89
2023-04-05T06:31:32.733Z,5.04
2023-04-05T06:34:00.771Z,5.16
2023-04-05T06:36:31.635Z,5.27
2023-04-05T06:38:59.545Z,5.40
2023-04-05T06:41:29.910Z,5.55
2023-04-05T06:43:57.932Z,5.67
2023-04-05T06:46:26.633Z,5.85
2023-04-05T06:48:54.922Z,6.02
2023-04-05T06:51:22.846Z,6.18
2023-04-05T06:53:50.672Z,6.30
2023-04-05T06:56:18.628Z,6.47
2023-04-05T06:58:47.867Z,6.63
2023-04-05T07:01:17.498Z,6.79
2023-04-05T07:03:45.525Z,6.91
2023-04-05T07:06:13.431Z,7.12
2023-04-05T07:08:41.911Z,7.28
2023-04-05T07:11:09.818Z,7.45
2023-04-05T07:13:37.733Z,7.63
2023-04-05T07:16:07.792Z,7.87
2023-04-05T07:18:35.977Z,8.12
2023-04-05T07:21:04.742Z,8.44
2023-04-05T07:23:32.717Z,8.77
2023-04-05T07:26:04.454Z,9.13
2023-04-05T07:28:33.817Z,9.44
2023-04-05T07:31:02.388Z,9.84
2023-04-05T07:33:31.695Z,10.16
2023-04-05T07:35:59.762Z,10.45
2023-04-05T07:38:29.294Z,10.74
2023-04-05T07:40:57.451Z,10.96
2023-04-05T07:43:25.828Z,11.15
2023-04-05T07:45:54.592Z,11.28
2023-04-05T07:48:22.588Z,11.44
2023-04-05T07:50:52.985Z,11.53
2023-04-05T07:53:21.172Z,11.60
2023-04-05T07:55:49.339Z,11.64
2023-04-05T07:58:17.621Z,11.69
2023-04-05T08:00:45.497Z,11.72
2023-04-05T08:03:13.519Z,11.74
2023-04-05T08:05:41.471Z,11.77
2023-04-05T08:08:11.190Z,11.80
2023-04-05T08:10:40.462Z,11.81
2023-04-05T08:13:08.491Z,11.80
2023-04-05T08:15:36.475Z,11.80
2023-04-05T08:18:04.788Z,11.79
2023-04-05T08:20:32.589Z,11.77
2023-04-05T08:23:00.366Z,11.74
2023-04-05T08:25:29.735Z,11.74
2023-04-05T08:27:57.570Z,11.65
2023-04-05T08:30:25.321Z,11.60
2023-04-05T08:32:53.283Z,11.54
2023-04-05T08:35:21.235Z,11.51
2023-04-05T08:37:49.068Z,11.46
2023-04-05T08:40:17.660Z,11.43
2023-04-05T08:42:53.315Z,11.43
2023-04-05T08:45:24.075Z,11.43
2023-04-05T08:47:58.305Z,11.43
2023-04-05T08:50:27.338Z,11.44
2023-04-05T08:52:55.741Z,11.47
2023-04-05T08:55:23.876Z,11.50
2023-04-05T08:57:59.571Z,11.54
2023-04-05T09:00:29.007Z,11.59
2023-04-05T09:05:45.297Z,11.69
2023-04-05T09:08:14.133Z,11.73
2023-04-05T09:10:42.571Z,11.78
2023-04-05T09:13:12.049Z,11.87
2023-04-05T09:15:40.376Z,11.91
2023-04-05T09:18:19.097Z,11.95
2023-04-05T09:20:58.023Z,12.00
2023-04-05T09:23:26.255Z,11.98
2023-04-05T09:25:54.157Z,12.04
2023-04-05T09:28:23.806Z,12.11
2023-04-05T09:30:51.672Z,12.13
2023-04-05T09:33:22.019Z,12.17
2023-04-05T09:35:52.100Z,12.25
2023-04-05T09:38:21.305Z,12.28
2023-04-05T09:40:51.303Z,12.34
2023-04-05T09:43:41.054Z,12.41
2023-04-05T09:46:09.033Z,12.17
2023-04-05T09:48:49.745Z,12.49
2023-04-05T09:51:18.514Z,12.57
2023-04-05T09:53:59.918Z,12.68
2023-04-05T09:56:28.589Z,12.73
2023-04-05T09:59:02.456Z,12.85
2023-04-05T10:01:32.376Z,12.91
2023-04-05T10:04:01.333Z,13.01
2023-04-05T10:06:47.495Z,13.10
2023-04-05T10:09:15.612Z,13.16
2023-04-05T10:11:45.112Z,13.29
2023-04-05T10:14:14.334Z,13.37
2023-04-05T10:16:48.732Z,13.49
2023-04-05T10:19:26.434Z,13.57
2023-04-05T10:21:55.726Z,13.61
2023-04-05T10:24:36.630Z,13.66
2023-04-05T10:27:09.305Z,13.69
2023-04-05T10:29:52.503Z,13.73
2023-04-05T10:32:30.097Z,13.80
2023-04-05T10:35:08.742Z,13.83
2023-04-05T10:37:48.259Z,13.88
2023-04-05T10:40:19.835Z,13.93
2023-04-05T10:42:49.642Z,13.98
2023-04-05T10:45:22.399Z,14.04
2023-04-05T10:47:56.408Z,14.10
2023-04-05T10:50:26.115Z,14.12
2023-04-05T10:52:54.278Z,14.13
2023-04-05T10:55:22.565Z,14.17
2023-04-05T10:57:52.439Z,14.19
2023-04-05T11:00:57.931Z,14.15
2023-04-05T11:03:58.406Z,14.08
2023-04-05T11:06:49.506Z,14.08
2023-04-05T11:13:11.105Z,13.91
2023-04-05T11:15:40.581Z,13.86
2023-04-05T11:18:12.470Z,13.85
2023-04-05T11:20:48.676Z,13.84
2023-04-05T11:23:18.688Z,13.83
2023-04-05T11:25:53.049Z,13.87
2023-04-05T11:28:31.897Z,13.89
2023-04-05T11:31:13.840Z,13.91
2023-04-05T11:34:10.190Z,13.89
2023-04-05T11:36:41.819Z,13.96
2023-04-05T11:39:29.220Z,13.96
2023-04-05T11:42:08.426Z,14.01
2023-04-05T11:44:44.690Z,14.04
2023-04-05T11:47:13.462Z,14.01
2023-04-05T11:49:43.395Z,14.09
2023-04-05T11:52:12.979Z,14.10
2023-04-05T11:54:45.964Z,14.11
2023-04-05T11:57:16.160Z,14.17
2023-04-05T11:59:44.781Z,14.20
2023-04-05T12:02:12.664Z,14.23
2023-04-05T12:04:42.016Z,14.28
2023-04-05T12:07:14.898Z,14.33
2023-04-05T12:10:02.431Z,14.09
2023-04-05T12:12:35.883Z,14.37
2023-04-05T12:15:04.806Z,14.44
2023-04-05T12:17:40.236Z,14.48
2023-04-05T12:20:14.081Z,14.51
2023-04-05T12:22:43.517Z,14.54
2023-04-05T12:25:12.099Z,14.54
2023-04-05T12:27:40.788Z,14.55
2023-04-05T12:30:10.961Z,14.57
2023-04-05T12:32:42.674Z,14.57
2023-04-05T12:35:18.190Z,14.57
2023-04-05T12:37:46.546Z,14.58
2023-04-05T12:40:15.060Z,14.61
2023-04-05T12:42:43.275Z,14.59
2023-04-05T12:45:13.446Z,14.61
2023-04-05T12:47:52.743Z,14.62
2023-04-05T12:50:28.770Z,14.64
2023-04-05T12:52:57.842Z,14.64
2023-04-05T12:55:26.814Z,14.66
2023-04-05T12:57:55.899Z,14.66
2023-04-05T13:00:26.687Z,14.69
2023-04-05T13:02:56.007Z,14.70
2023-04-05T13:05:27.181Z,14.73
2023-04-05T13:07:55.771Z,14.73
2023-04-05T13:10:25.562Z,14.76
2023-04-05T13:12:53.622Z,14.78
2023-04-05T13:15:21.890Z,14.79
2023-04-05T13:17:52.011Z,14.81
2023-04-05T13:20:20.375Z,14.82
2023-04-05T13:22:49.625Z,14.85
2023-04-05T13:25:17.833Z,14.82
2023-04-05T13:27:45.933Z,14.81
2023-04-05T13:30:14.319Z,14.83
2023-04-05T13:32:42.471Z,14.82
2023-04-05T13:35:11.176Z,14.83
2023-04-05T13:37:39.561Z,14.84
2023-04-05T13:40:11.705Z,14.85
2023-04-05T13:42:39.665Z,14.81
2023-04-05T13:45:08.479Z,14.83
2023-04-05T13:47:37.010Z,14.82
2023-04-05T13:50:05.633Z,14.84
2023-04-05T13:52:41.160Z,14.84
2023-04-05T13:55:11.480Z,14.84
2023-04-05T13:57:39.385Z,14.81
2023-04-05T14:00:09.027Z,14.84
2023-04-05T14:02:39.909Z,14.80
2023-04-05T14:05:08.989Z,14.82
2023-04-05T14:07:37.653Z,14.81
2023-04-05T14:10:07.252Z,14.77
2023-04-05T14:12:37.146Z,14.79
2023-04-05T14:15:05.885Z,14.75
2023-04-05T14:17:33.938Z,14.73
2023-04-05T14:20:01.925Z,14.71
2023-04-05T14:22:29.772Z,14.68
2023-04-05T14:24:57.831Z,14.65
2023-04-05T14:27:26.920Z,14.63
2023-04-05T14:29:57.458Z,14.62
2023-04-05T14:32:25.678Z,14.57
2023-04-05T14:34:53.806Z,14.55
2023-04-05T14:37:21.953Z,14.52
2023-04-05T14:39:49.864Z,14.51
2023-04-05T14:42:18.031Z,14.48
2023-04-05T14:44:48.045Z,14.45
2023-04-05T14:47:18.402Z,14.46
2023-04-05T14:49:46.481Z,14.42
2023-04-05T14:52:14.464Z,14.38
2023-04-05T14:54:43.351Z,14.37
2023-04-05T14:57:11.324Z,14.33
2023-04-05T14:59:39.552Z,14.28
2023-04-05T15:02:07.933Z,14.18
2023-04-05T15:04:37.782Z,14.12
2023-04-05T15:07:05.785Z,14.05
2023-04-05T15:09:33.992Z,13.96
2023-04-05T15:12:02.324Z,13.91
2023-04-05T15:14:32.085Z,13.85
2023-04-05T15:17:00.937Z,13.80
2023-04-05T15:19:30.490Z,13.75
2023-04-05T15:22:00.106Z,13.72
2023-04-05T15:24:28.061Z,13.66
2023-04-05T15:27:02.054Z,13.62
2023-04-05T15:29:31.102Z,13.58
2023-04-05T15:31:59.057Z,13.55
2023-04-05T15:34:27.212Z,13.52
2023-04-05T15:36:55.953Z,13.50
2023-04-05T15:39:25.531Z,13.48
2023-04-05T15:41:53.752Z,13.44
2023-04-05T15:44:21.831Z,13.41
2023-04-05T15:46:49.911Z,13.40
2023-04-05T15:49:18.023Z,13.36
2023-04-05T15:51:46.127Z,13.35
2023-04-05T15:54:18.576Z,13.33
2023-04-05T17:37:37.453Z,11.95
2023-04-05T17:40:06.762Z,11.96
2023-04-05T17:42:35.174Z,11.94
2023-04-05T17:45:03.598Z,11.95
2023-04-05T17:47:31.608Z,11.94
2023-04-05T17:49:59.832Z,11.92
2023-04-05T17:52:27.886Z,11.91
2023-04-05T17:54:57.329Z,11.91
2023-04-05T17:57:25.329Z,11.88
2023-04-05T17:59:53.594Z,11.86
2023-04-05T18:02:21.758Z,11.82
2023-04-05T18:04:49.940Z,11.80
2023-04-05T18:07:18.020Z,11.78
2023-04-05T18:09:46.383Z,11.76
2023-04-05T18:12:15.744Z,11.74
2023-04-05T18:14:43.758Z,11.69
2023-04-05T18:17:11.785Z,11.66
2023-04-05T18:19:39.807Z,11.64
2023-04-05T18:22:07.795Z,11.61
2023-04-05T18:24:35.821Z,11.57
2023-04-05T18:27:03.875Z,11.54
2023-04-05T18:29:37.789Z,11.53
2023-04-05T18:32:05.997Z,11.48
2023-04-05T18:34:34.508Z,11.46
2023-04-05T18:37:02.722Z,11.42
2023-04-05T18:39:30.768Z,11.39
2023-04-05T18:41:59.131Z,11.36
2023-04-05T18:44:27.350Z,11.33
2023-04-05T18:46:57.123Z,11.31
2023-04-05T18:49:25.472Z,11.26
2023-04-05T18:51:55.684Z,11.23
2023-04-05T18:54:23.872Z,11.19
2023-04-05T18:56:52.000Z,11.16
2023-04-05T18:59:20.182Z,11.13
2023-04-05T19:01:48.296Z,11.10
2023-04-05T19:04:17.639Z,11.10
2023-04-05T19:06:45.622Z,11.04
2023-04-05T19:09:13.533Z,11.02
2023-04-05T19:11:41.499Z,10.99
2023-04-05T19:14:09.508Z,10.96
2023-04-05T19:16:37.480Z,10.93
2023-04-05T19:19:06.597Z,10.89
2023-04-05T19:21:36.217Z,10.87
2023-04-05T19:24:04.518Z,10.83
2023-04-05T19:26:33.787Z,10.80
2023-04-05T19:29:01.844Z,10.77
2023-04-05T19:31:30.759Z,10.75
2023-04-05T19:33:58.874Z,10.72
2023-04-05T19:36:28.051Z,10.68
2023-04-05T19:38:57.423Z,10.67
2023-04-05T19:41:26.024Z,10.64
2023-04-05T19:43:54.085Z,10.60
2023-04-05T19:46:31.004Z,10.59
2023-04-05T19:49:08.713Z,10.55
2023-04-05T19:51:37.490Z,10.50
2023-04-05T19:54:11.886Z,10.49
2023-04-05T19:56:40.212Z,10.43
2023-04-05T19:59:28.246Z,10.42
2023-04-05T20:01:56.592Z,10.37
2023-04-05T20:04:26.669Z,10.36
2023-04-05T20:06:55.953Z,10.32
2023-04-05T20:09:26.590Z,10.30
2023-04-05T20:11:57.921Z,10.26
2023-04-05T20:14:29.090Z,10.22
2023-04-05T20:16:57.954Z,10.18
2023-04-05T20:19:29.756Z,10.17
2023-04-05T20:21:59.225Z,10.12
2023-04-05T20:24:29.363Z,10.09
2023-04-05T20:26:57.851Z,10.03
2023-04-05T20:29:27.660Z,10.00
2023-04-05T20:32:06.498Z,9.93
2023-04-05T20:34:38.009Z,9.85
2023-04-05T20:37:08.202Z,9.80
2023-04-05T20:39:38.818Z,9.73
2023-04-05T20:42:07.598Z,9.63
2023-04-05T20:44:35.560Z,9.53
2023-04-05T20:47:03.512Z,9.44
2023-04-05T20:49:31.702Z,9.39
2023-04-05T20:51:59.889Z,9.30
2023-04-05T20:54:28.423Z,9.25
2023-04-05T20:56:57.724Z,9.18
2023-04-05T20:59:26.196Z,9.13
2023-04-05T21:01:54.304Z,9.07
2023-04-05T21:04:22.281Z,9.02
2023-04-05T21:06:50.202Z,8.96
2023-04-05T21:09:18.164Z,8.92
2023-04-05T21:11:46.088Z,8.87
2023-04-05T21:14:16.220Z,8.84
2023-04-05T21:16:44.122Z,8.79
2023-04-05T21:19:12.165Z,8.76
2023-04-05T21:21:40.188Z,8.74
2023-04-05T21:24:08.233Z,8.70
2023-04-05T21:26:36.160Z,8.69
2023-04-05T21:29:04.042Z,8.66
2023-04-05T21:31:33.444Z,8.67
2023-04-05T21:34:01.339Z,8.63
2023-04-05T21:36:29.292Z,8.63
2023-04-05T21:38:57.394Z,8.62
2023-04-05T21:41:25.308Z,8.61
2023-04-05T21:43:53.260Z,8.60
2023-04-05T21:46:21.416Z,8.60
2023-04-05T21:48:50.793Z,8.61
2023-04-05T21:51:18.711Z,8.59
2023-04-05T21:53:46.915Z,8.58
2023-04-05T21:56:15.316Z,8.58
2023-04-05T21:58:43.244Z,8.58
2023-04-05T22:01:11.403Z,8.57
2023-04-05T22:03:43.445Z,8.56
2023-04-05T22:06:12.985Z,8.54
2023-04-05T22:08:40.857Z,8.54
2023-04-05T22:11:08.776Z,8.53
2023-04-05T22:13:36.662Z,8.52
2023-04-05T22:16:04.833Z,8.51
2023-04-05T22:18:32.728Z,8.49
2023-04-05T22:21:00.768Z,8.47
2023-04-05T22:23:30.197Z,8.48
2023-04-05T22:25:58.212Z,8.45
2023-04-05T22:28:26.137Z,8.43
2023-04-05T22:30:54.329Z,8.42
2023-04-05T22:33:22.216Z,8.41
2023-04-05T22:35:50.394Z,8.39
2023-04-05T22:38:18.343Z,8.38
2023-04-05T22:40:47.658Z,8.38
2023-04-05T22:43:15.554Z,8.35
2023-04-05T22:45:43.541Z,8.34
2023-04-05T22:48:11.522Z,8.31
2023-04-05T22:50:39.538Z,8.29
2023-04-05T22:53:07.453Z,8.28
2023-04-05T22:55:37.376Z,8.25
2023-04-05T22:58:06.945Z,8.24
2023-04-05T23:00:35.049Z,8.21
2023-04-05T23:03:03.048Z,8.18
2023-04-05T23:05:31.473Z,8.15
2023-04-05T23:07:59.433Z,8.13
2023-04-05T23:10:27.438Z,8.10
2023-04-05T23:12:55.697Z,8.07
2023-04-05T23:15:25.149Z,8.06
2023-04-05T23:17:53.237Z,8.01
2023-04-05T23:20:21.285Z,7.99
2023-04-05T23:22:49.334Z,7.95
2023-04-05T23:25:17.474Z,7.92
2023-04-05T23:27:45.437Z,7.89
2023-04-05T23:30:14.148Z,7.87
2023-04-05T23:32:43.936Z,7.83
2023-04-05T23:35:12.085Z,7.79
2023-04-05T23:37:40.182Z,7.76
2023-04-05T23:40:09.224Z,7.73
2023-04-05T23:42:37.187Z,7.70
2023-04-05T23:45:08.455Z,7.67
2023-04-05T23:47:38.043Z,7.60
2023-04-05T23:50:09.224Z,7.61
2023-04-05T23:52:37.171Z,7.54
2023-04-05T23:55:06.421Z,7.53
2023-04-05T23:57:34.377Z,7.48
